Latest Weather Observations for Wyndham Airport

IDD60801

Issued at 9:01 pm CST Thursday 29 September 2016 (issued every 30 minutes, with the page automatically refreshed every 10 minutes)

About weather observations | Map of weather stations | Latest weather observations for NT | Other Formats
Station Details ID: 001006 Name: WYNDHAM AERO Lat: -15.51 Lon: 128.15 Height: 3.8 m
Data from the previous 72 hours. | See also: Recent months at Wyndham Airport
Date/Time
CST
Temp
°C
App
Temp
°C
Dew
Point
°C
Rel
Hum
%
Delta-T
°C
Wind Press
QNH
hPa
Press
MSL
hPa
Rain since
9am
mm
Dir  Spd
km/h
Gust
km/h
Spd
kts
Gust
kts
29/09:00pm 32.0 31.7 19.6 47 8.2 N 20 28 11 15 1006.8 1006.8 0.0
29/08:30pm 32.3 31.5 19.2 46 8.6 N 22 30 12 16 1006.5 1006.5 0.0
29/08:00pm 32.6 31.7 21.5 52 7.5 N 28 35 15 19 1006.0 1006.0 0.0
29/07:30pm 33.6 33.7 21.1 48 8.4 N 22 30 12 16 1005.5 1005.5 0.0
29/07:00pm 35.0 33.5 18.6 38 10.7 N 24 33 13 18 1005.1 1005.1 0.0
29/06:41pm 35.9 34.9 17.6 34 11.8 NE 19 33 10 18 1004.8 1004.8 0.0
29/06:30pm 38.3 37.4 11.4 20 16.1 E 7 13 4 7 1004.7 1004.7 0.0
29/06:00pm 39.2 36.8 11.3 19 16.7 SE 15 19 8 10 1004.4 1004.4 0.0
29/05:30pm 38.8 38.0 11.0 19 16.6 E 6 9 3 5 1004.5 1004.5 0.0
29/05:00pm 38.6 36.8 10.9 19 16.5 ESE 11 17 6 9 1004.4 1004.4 0.0
29/04:30pm 40.2 37.4 11.3 18 17.4 E 17 26 9 14 1004.5 1004.5 0.0
29/04:00pm 39.8 39.0 11.8 19 16.9 W 7 13 4 7 1004.7 1004.7 0.0
29/03:30pm 39.7 37.0 11.7 19 17.0 S 17 28 9 15 1004.9 1004.9 0.0
29/03:00pm 39.3 37.3 11.4 19 16.8 E 13 20 7 11 1005.4 1005.4 0.0
29/02:30pm 39.3 37.3 11.4 19 16.8 SSW 13 20 7 11 1005.9 1005.9 0.0
29/02:00pm 39.6 37.5 12.4 20 16.6 SSW 15 24 8 13 1006.3 1006.3 0.0
29/01:30pm 38.9 36.6 11.9 20 16.3 E 15 24 8 13 1006.9 1006.9 0.0
29/01:00pm 39.0 36.6 12.7 21 16.1 SE 17 26 9 14 1007.5 1007.5 0.0
29/12:30pm 39.0 37.0 12.7 21 16.1 SE 15 30 8 16 1008.0 1008.0 0.0
29/12:00pm 37.7 35.6 12.3 22 15.4 SE 15 30 8 16 1008.5 1008.5 0.0
29/11:30am 37.9 35.7 13.2 23 15.2 SE 17 32 9 17 1009.1 1009.1 0.0
29/11:00am 37.5 35.1 12.8 22 15.0 E 17 28 9 15 1009.5 1009.5 0.0
29/10:30am 37.0 35.5 13.1 24 14.6 ESE 13 24 7 13 1009.7 1009.7 0.0
29/10:00am 35.1 34.0 14.4 29 12.8 ESE 13 20 7 11 1009.9 1009.9 0.0
29/09:30am 34.2 33.2 14.7 31 12.1 E 13 20 7 11 1010.1 1010.1 0.0
29/09:00am 33.8 33.2 15.7 33 11.3 E 13 17 7 9 1009.9 1009.9 0.0
29/08:30am 32.1 32.3 16.8 40 9.7 ESE 11 13 6 7 1009.8 1009.8 0.0
29/08:00am 30.6 31.3 18.0 47 8.1 SSE 11 13 6 7 1009.8 1009.8 0.0
29/07:30am 28.8 30.2 18.6 54 6.6 ESE 9 11 5 6 1009.3 1009.3 0.0
29/07:00am 27.8 28.7 18.5 57 5.9 ENE 11 15 6 8 1008.9 1008.9 0.0
29/06:30am 27.7 28.9 19.0 59 5.6 ENE 11 15 6 8 1008.6 1008.6 0.0
29/06:00am 27.3 27.7 19.1 61 5.3 E 15 17 8 9 1008.4 1008.4 0.0
29/05:30am 27.8 27.0 19.3 60 5.5 ESE 22 30 12 16 1007.9 1007.9 0.0
29/05:00am 27.1 28.2 18.9 61 5.3 E 11 13 6 7 1007.3 1007.3 0.0
29/04:30am 27.0 27.6 18.6 60 5.4 ESE 13 15 7 8 1007.3 1007.3 0.0
29/04:00am 27.9 28.3 18.9 58 5.8 ESE 15 17 8 9 1007.3 1007.3 0.0
29/03:30am 28.3 28.8 19.2 57 5.9 ESE 15 17 8 9 1007.5 1007.5 0.0
29/03:00am 28.6 29.5 19.2 56 6.1 E 13 17 7 9 1007.5 1007.5 0.0
29/02:30am 28.6 29.8 19.0 56 6.2 E 11 15 6 8 1007.8 1007.8 0.0
29/02:00am 28.7 29.4 18.8 55 6.4 E 13 17 7 9 1008.1 1008.1 0.0
29/01:30am 28.6 29.1 18.4 54 6.5 ESE 13 17 7 9 1008.3 1008.3 0.0
29/01:00am 28.0 28.6 17.8 54 6.5 ESE 11 13 6 7 1008.5 1008.5 0.0
29/12:30am 28.2 30.4 16.5 49 7.3 CALM 0 0 0 0 1008.8 1008.8 0.0
29/12:00am 28.6 30.1 17.5 51 7.0 E 6 9 3 5 1008.8 1008.8 0.0
 
Date/Time
CST
Temp
°C
App
Temp
°C
Dew
Point
°C
Rel
Hum
%
Delta-T
°C
Wind Press
QNH
hPa
Press
MSL
hPa
Rain since
9am
mm
Dir  Spd
km/h
Gust
km/h
Spd
kts
Gust
kts
28/11:30pm 29.9 31.5 18.3 49 7.5 ENE 7 13 4 7 1009.1 1009.1 0.0
28/11:00pm 30.2 31.7 18.0 48 7.8 E 7 9 4 5 1009.3 1009.3 0.0
28/10:30pm 30.6 31.7 17.0 44 8.6 E 7 11 4 6 1009.2 1009.2 0.0
28/10:00pm 32.0 32.5 15.5 37 10.2 N 7 11 4 6 1008.7 1008.7 0.0
28/09:30pm 32.5 32.6 15.5 36 10.6 N 9 13 5 7 1008.3 1008.3 0.0
28/09:00pm 32.8 32.6 15.8 36 10.6 NNW 11 19 6 10 1007.9 1007.9 0.0
28/08:30pm 32.5 31.9 17.5 40 9.6 NNW 17 26 9 14 1007.6 1007.6 0.0
28/08:00pm 32.6 32.5 18.8 44 9.0 N 17 26 9 14 1007.2 1007.2 0.0
28/07:30pm 32.9 32.0 18.3 42 9.5 N 20 30 11 16 1006.7 1006.7 0.0
28/07:00pm 33.5 30.3 17.2 37 10.4 N 30 43 16 23 1006.1 1006.1 0.0
28/06:30pm 34.4 30.1 15.3 31 11.9 N 32 43 17 23 1005.8 1005.8 0.0
28/06:00pm 35.4 30.6 14.6 28 12.9 N 33 43 18 23 1005.6 1005.6 0.0
28/05:30pm 37.4 33.2 14.7 26 14.2 N 30 44 16 24 1005.3 1005.3 0.0
28/05:25pm 37.3 32.7 14.6 26 14.2 N 32 44 17 24 1005.2 1005.2 0.0
28/05:00pm 39.3 36.6 12.9 20 16.2 N 19 32 10 17 1005.1 1005.1 0.0
28/04:30pm 39.7 37.2 10.9 18 17.2 NW 15 22 8 12 1005.2 1005.2 0.0
28/04:00pm 40.3 39.0 11.4 18 17.4 NW 9 19 5 10 1005.5 1005.5 0.0
28/03:30pm 40.1 37.7 11.3 18 17.4 NW 15 24 8 13 1005.8 1005.8 0.0
28/03:00pm 39.3 37.4 10.6 18 17.0 W 11 22 6 12 1006.2 1006.2 0.0
28/02:30pm 40.7 38.8 11.7 18 17.6 WNW 13 26 7 14 1006.5 1006.5 0.0
28/02:00pm 39.6 37.3 11.7 19 16.8 NW 15 26 8 14 1007.1 1007.1 0.0
28/01:30pm 40.0 37.2 11.2 18 17.3 W 17 37 9 20 1007.7 1007.7 0.0
28/01:00pm 39.4 35.7 11.5 19 16.8 W 22 33 12 18 1008.4 1008.4 0.0
28/12:30pm 38.7 35.4 11.7 20 16.3 W 20 28 11 15 1009.1 1009.1 0.0
28/12:00pm 38.5 35.4 12.3 21 15.9 WSW 20 30 11 16 1009.6 1009.6 0.0
28/11:30am 37.9 34.3 11.8 21 15.7 W 22 33 12 18 1010.0 1010.0 0.0
28/11:00am 37.1 33.9 11.8 22 15.2 WSW 20 30 11 16 1010.4 1010.4 0.0
28/10:30am 36.5 32.5 10.6 21 15.2 WSW 22 30 12 16 1010.8 1010.8 0.0
28/10:00am 36.3 31.7 11.2 22 14.9 WSW 26 33 14 18 1011.0 1011.0 0.0
28/09:30am 34.7 29.8 11.2 24 13.8 WSW 28 33 15 18 1010.9 1010.9 0.0
28/09:00am 34.1 30.1 11.9 26 13.2 W 24 30 13 16 1010.9 1010.9 0.0
28/08:30am 32.0 30.3 12.3 30 11.7 NW 13 26 7 14 1010.7 1010.7 0.0
28/08:00am 30.5 30.1 14.2 37 9.9 WNW 9 11 5 6 1010.4 1010.4 0.0
28/07:30am 28.5 27.7 14.0 41 8.7 NW 11 11 6 6 1009.8 1009.8 0.0
28/07:00am 28.0 27.0 13.5 41 8.6 NW 11 13 6 7 1009.4 1009.4 0.0
28/06:30am 28.7 27.4 13.8 40 8.9 NNW 13 15 7 8 1009.0 1009.0 0.0
28/06:00am 29.1 27.3 13.3 37 9.4 WNW 15 17 8 9 1008.6 1008.6 0.0
28/05:30am 29.2 27.7 14.2 40 9.0 NW 15 19 8 10 1008.1 1008.1 0.0
28/05:00am 28.8 28.3 15.0 43 8.4 NW 11 15 6 8 1007.9 1007.9 0.0
28/04:30am 28.8 28.4 15.3 43 8.3 NW 11 13 6 7 1007.9 1007.9 0.0
28/04:00am 28.8 29.4 16.7 48 7.6 NW 9 11 5 6 1007.8 1007.8 0.0
28/03:30am 28.9 29.5 16.8 48 7.6 WSW 9 11 5 6 1007.8 1007.8 0.0
28/03:00am 28.7 29.3 16.9 48 7.4 SW 9 9 5 5 1007.8 1007.8 0.0
28/02:30am 29.5 29.3 16.7 46 8.0 NNW 13 15 7 8 1007.8 1007.8 0.0
28/02:00am 29.2 29.0 16.7 46 7.8 NW 13 15 7 8 1008.3 1008.3 0.0
28/01:30am 29.8 30.1 16.9 45 8.1 NW 11 13 6 7 1008.7 1008.7 0.0
28/01:00am 30.5 30.5 17.2 44 8.4 NNW 13 15 7 8 1008.9 1008.9 0.0
28/12:30am 30.4 30.5 17.5 46 8.2 NW 13 15 7 8 1009.0 1009.0 0.0
28/12:00am 30.9 31.2 17.9 45 8.3 NW 13 15 7 8 1009.3 1009.3 0.0
 
Date/Time
CST
Temp
°C
App
Temp
°C
Dew
Point
°C
Rel
Hum
%
Delta-T
°C
Wind Press
QNH
hPa
Press
MSL
hPa
Rain since
9am
mm
Dir  Spd
km/h
Gust
km/h
Spd
kts
Gust
kts
27/11:30pm 30.2 31.7 18.0 48 7.8 WNW 7 11 4 6 1009.3 1009.3 0.0
27/11:00pm 30.3 32.1 18.4 49 7.7 N 6 9 3 5 1009.5 1009.5 0.0
27/10:30pm 30.7 32.0 18.4 47 7.9 N 9 13 5 7 1009.4 1009.4 0.0
27/10:00pm 31.2 31.8 18.5 46 8.2 N 13 17 7 9 1009.4 1009.4 0.0
27/09:30pm 31.3 32.7 19.6 49 7.7 N 11 17 6 9 1009.3 1009.3 0.0
27/09:00pm 31.6 33.6 19.9 50 7.7 N 9 15 5 8 1008.9 1008.9 0.0
27/08:30pm 31.8 32.3 20.1 50 7.8 N 17 30 9 16 1008.3 1008.3 0.0
27/08:00pm 32.1 32.1 19.7 48 8.2 N 19 32 10 17 1007.9 1007.9 0.0
27/07:30pm 32.7 30.5 18.8 43 9.1 N 28 39 15 21 1007.4 1007.4 0.0
27/07:00pm 33.2 31.4 17.8 40 9.9 N 24 39 13 21 1006.9 1006.9 0.0
27/06:54pm 33.2 30.4 18.2 41 9.7 N 30 48 16 26 1006.8 1006.8 0.0
27/06:30pm 33.5 30.4 18.8 41 9.6 N 33 48 18 26 1006.3 1006.3 0.0
27/06:00pm 34.5 29.9 18.1 37 10.6 N 39 52 21 28 1005.9 1005.9 0.0
27/05:30pm 36.0 31.6 15.7 30 12.8 N 33 48 18 26 1005.6 1005.6 0.0
27/05:00pm 37.3 33.3 14.0 25 14.4 N 28 35 15 19 1005.4 1005.4 0.0
27/04:30pm 39.3 35.7 12.9 20 16.2 NNW 24 37 13 20 1005.3 1005.3 0.0
27/04:29pm 39.5 35.9 13.1 21 16.3 NNW 24 37 13 20 1005.3 1005.3 0.0
27/04:00pm 39.9 37.9 10.2 17 17.6 N 11 17 6 9 1005.4 1005.4 0.0
27/03:30pm 40.5 38.7 10.7 17 17.8 NNW 11 22 6 12 1005.6 1005.6 0.0
27/03:00pm 41.0 38.3 10.2 16 18.3 NNW 15 24 8 13 1005.9 1005.9 0.0
27/02:30pm 40.0 36.5 10.3 17 17.7 WSW 19 32 10 17 1006.1 1006.1 0.0
27/02:00pm 40.3 37.3 10.6 17 17.7 NW 17 24 9 13 1006.6 1006.6 0.0
27/01:30pm 39.5 37.1 9.9 17 17.5 W 13 20 7 11 1007.2 1007.2 0.0
27/01:00pm 39.1 36.4 10.4 18 17.0 S 15 22 8 12 1008.0 1008.0 0.0
27/12:30pm 38.9 36.9 10.3 18 16.9 SSW 11 20 6 11 1008.8 1008.8 0.0
27/12:00pm 39.0 35.6 10.4 18 16.9 W 19 30 10 16 1009.4 1009.4 0.0
27/11:30am 38.0 35.1 11.1 20 16.0 SW 17 26 9 14 1010.0 1010.0 0.0
27/11:00am 36.3 32.9 11.2 22 14.9 WSW 20 30 11 16 1010.4 1010.4 0.0
27/10:30am 36.3 32.5 12.5 24 14.4 WSW 24 35 13 19 1010.5 1010.5 0.0
27/10:00am 35.9 31.6 12.2 24 14.2 WSW 26 32 14 17 1010.8 1010.8 0.0
27/09:30am 34.5 34.0 14.9 31 12.2 W 11 20 6 11 1010.8 1010.8 0.0
27/09:00am 32.2 33.4 17.3 41 9.5 WSW 7 11 4 6 1010.9 1010.9 0.0
27/08:30am 30.0 34.0 20.5 56 6.3 CALM 0 6 0 3 1010.6 1010.6 0.0
27/08:00am 28.0 32.0 22.0 70 4.0 NE 4 7 2 4 1010.3 1010.3 0.0
27/07:30am 26.4 29.1 22.9 81 2.4 ESE 13 15 7 8 1010.2 1010.2 0.0
27/07:00am 24.8 27.2 21.5 82 2.2 ESE 11 13 6 7 1009.7 1009.7 0.0
27/06:30am 25.2 27.7 21.7 81 2.3 E 11 13 6 7 1009.7 1009.7 0.0
27/06:00am 25.6 27.7 21.7 79 2.6 ESE 13 15 7 8 1009.4 1009.4 0.0
27/05:30am 25.8 28.4 21.9 79 2.6 E 11 11 6 6 1009.1 1009.1 0.0
27/05:00am 25.9 28.4 21.8 78 2.7 E 11 15 6 8 1008.6 1008.6 0.0
27/04:30am 26.4 28.2 21.8 76 3.1 E 15 17 8 9 1008.3 1008.3 0.0
27/04:00am 26.0 28.1 21.7 77 2.9 ESE 13 15 7 8 1008.2 1008.2 0.0
27/03:30am 26.3 29.3 21.9 77 2.9 ESE 9 11 5 6 1008.0 1008.0 0.0
27/03:00am 26.2 28.8 21.2 74 3.3 E 9 11 5 6 1008.2 1008.2 0.0
27/02:30am 26.8 29.2 21.6 73 3.5 E 11 11 6 6 1008.3 1008.3 0.0
27/02:00am 26.6 28.6 20.7 70 3.9 E 11 11 6 6 1008.6 1008.6 0.0
27/01:30am 27.8 30.1 21.3 67 4.3 E 11 13 6 7 1009.0 1009.0 0.0
27/01:00am 28.0 29.9 21.3 67 4.5 ESE 13 15 7 8 1009.3 1009.3 0.0
27/12:30am 27.8 29.1 20.1 63 5.0 ESE 13 15 7 8 1009.6 1009.6 0.0
27/12:00am 28.4 30.6 19.1 57 6.0 E 6 7 3 4 1009.8 1009.8 0.0
 
Date/Time
CST
Temp
°C
App
Temp
°C
Dew
Point
°C
Rel
Hum
%
Delta-T
°C
Wind Press
QNH
hPa
Press
MSL
hPa
Rain since
9am
mm
Dir  Spd
km/h
Gust
km/h
Spd
kts
Gust
kts
26/11:30pm 29.5 31.8 17.7 49 7.5 NNE 2 9 1 5 1009.9 1009.9 0.0
26/11:00pm 31.4 33.5 17.3 43 9.0 N 2 7 1 4 1009.9 1009.9 0.0

Other Formats:

Comma delimited format used in spreadsheet applications
http://www.bom.gov.au/fwo/IDD60801/IDD60801.95214.axf

JavaScript Object Notation format (JSON) in row-major order
http://www.bom.gov.au/fwo/IDD60801/IDD60801.95214.json